Погода Мполенана 2 недели

Центральная Провинция, Малави

25 июля-06 августа
  • 25июля
    Сегодня
    +10°
    +27°
    Ясно и безоблачно
    ВремяПогодаТемператураВлажностьДавлениеВетер, м/сВероятность осадков
    02:00Ясно и безоблачно+13°C34 %662 мм2.3 м/с4 %
    05:00Ясно и безоблачно+9°C42 %661 мм2.4 м/с4 %
    08:00Ясно и безоблачно+18°C32 %666 мм1.7 м/с4 %
    11:00Ясно и безоблачно+25°C13 %667 мм3.9 м/с4 %
    14:00Ясно и безоблачно+26°C14 %665 мм3.3 м/с4 %
    17:00Ясно и безоблачно+24°C15 %664 мм2.5 м/с4 %
    20:00Ясно и безоблачно+18°C39 %664 мм2.9 м/с4 %
    23:00Ясно и безоблачно+14°C41 %663 мм2.7 м/с4 %
  • 26июля
    Пятница
    +12°
    +27°
    Ясно и безоблачно
    ВремяПогодаТемператураВлажностьДавлениеВетер, м/сВероятность осадков
    02:00Ясно и безоблачно+14°C41 %662 мм2.7 м/с4 %
    05:00Ясно и безоблачно+10°C44 %661 мм2.9 м/с4 %
    08:00Ясно и безоблачно+19°C29 %666 мм3.6 м/с4 %
    11:00Ясно и безоблачно+25°C16 %667 мм2.8 м/с4 %
    14:00Ясно и безоблачно+27°C15 %665 мм3.3 м/с4 %
    17:00Ясно и безоблачно+24°C17 %665 мм3.3 м/с4 %
    20:00Ясно и безоблачно+18°C24 %664 мм3.6 м/с4 %
    23:00Ясно и безоблачно+17°C28 %664 мм4.8 м/с4 %
  • 27июля
    Суббота
    +12°
    +27°
    Ясно и безоблачно
    ВремяПогодаТемператураВлажностьДавлениеВетер, м/сВероятность осадков
    02:00Ясно и безоблачно+16°C33 %663 мм4.0 м/с4 %
    05:00Ясно и безоблачно+13°C37 %663 мм4.8 м/с4 %
    08:00Ясно и безоблачно+18°C34 %666 мм4.6 м/с4 %
    11:00Ясно и безоблачно+25°C19 %667 мм3.5 м/с4 %
    14:00Ясно и безоблачно+27°C15 %665 мм3.3 м/с4 %
    17:00Ясно и безоблачно+24°C22 %665 мм2.8 м/с4 %
    20:00Ясно и безоблачно+18°C28 %664 мм3.0 м/с4 %
    23:00Ясно и безоблачно+16°C30 %663 мм3.6 м/с4 %
  • 28июля
    Воскресенье
    +13°
    +28°
    Ясно и безоблачно
    ВремяПогодаТемператураВлажностьДавлениеВетер, м/сВероятность осадков
    02:00Ясно и безоблачно+16°C38 %662 мм3.5 м/с4 %
    05:00Ясно и безоблачно+13°C38 %662 мм2.8 м/с4 %
    08:00Ясно и безоблачно+20°C31 %666 мм3.3 м/с4 %
    11:00Ясно и безоблачно+26°C16 %666 мм2.0 м/с4 %
    14:00Ясно и безоблачно+28°C13 %665 мм2.8 м/с4 %
    17:00Ясно и безоблачно+25°C17 %664 мм3.2 м/с4 %
    20:00Ясно и безоблачно+19°C25 %663 мм3.5 м/с4 %
    23:00Ясно и безоблачно+17°C30 %663 мм3.5 м/с4 %
Мы используем cookies
Соглашаюсь